Time;durP1;ratioP1;P1;durP2;ratioP2;P2;SDS_P1;SDS_P2;PMS_P1;PMS_P2;Temp;Humidity;BMP_temperature;BMP_pressure;BME280_temperature;BME280_humidity;BME280_pressure;Samples;Min_cycle;Max_cycle;Signal;HPM_P1;HPM_P2
2023/10/19 00:00:25;;;;;;;;;2.67;0.67;;;;;16.48;100.00;99329.56;5053196;28;45583;-78
2023/10/19 00:03:08;;;;;;;;;1.67;0.00;;;;;16.56;100.00;99320.84;4963868;28;45466;-79
2023/10/19 00:05:41;;;;;;;;;0.00;0.00;;;;;16.09;100.00;99253.28;4963297;28;45370;-78
2023/10/19 00:08:20;;;;;;;;;2.00;1.00;;;;;16.04;100.00;99229.72;4966090;28;45413;-78
2023/10/19 00:11:08;;;;;;;;;0.67;0.67;;;;;16.00;100.00;99252.31;4995633;28;46269;-78
2023/10/19 00:14:15;;;;;;;;;2.33;1.00;;;;;16.34;100.00;99281.13;5048173;28;45392;-78
2023/10/19 00:23:42;;;;;;;;;4.00;1.00;;;;;16.56;100.00;99347.53;5007984;28;46032;-80
2023/10/19 00:26:17;;;;;;;;;2.00;0.67;;;;;16.08;100.00;99284.44;4993496;28;45714;-78
2023/10/19 00:28:52;;;;;;;;;2.00;1.67;;;;;16.00;100.00;99244.31;5013845;28;45585;-77
2023/10/19 00:31:27;;;;;;;;;2.33;1.00;;;;;16.23;100.00;99295.47;5026054;28;45611;-77
2023/10/19 00:33:56;;;;;;;;;2.00;1.00;;;;;16.17;100.00;99290.72;5013977;28;46512;-79
2023/10/19 00:36:26;;;;;;;;;3.33;1.00;;;;;16.56;100.00;99359.03;5053567;28;45599;-80
2023/10/19 00:39:05;;;;;;;;;0.67;0.67;;;;;16.27;100.00;99277.38;5031084;28;45524;-81
2023/10/19 00:41:45;;;;;;;;;5.00;2.00;;;;;15.82;100.00;99198.06;5045169;28;45530;-80
2023/10/19 00:44:25;;;;;;;;;3.00;1.67;;;;;15.88;100.00;99218.81;5047067;28;46410;-80
2023/10/19 00:47:03;;;;;;;;;0.33;0.00;;;;;16.19;100.00;99258.59;5052802;28;45321;-79
2023/10/19 00:49:39;;;;;;;;;2.67;1.00;;;;;15.90;100.00;99189.34;5040817;28;45630;-80
2023/10/19 00:52:43;;;;;;;;;0.33;0.33;;;;;16.01;100.00;99219.34;5047737;28;45412;-80
2023/10/19 00:55:12;;;;;;;;;1.00;1.00;;;;;16.14;100.00;99243.84;5041827;28;46625;-79
2023/10/19 00:57:49;;;;;;;;;3.00;1.00;;;;;15.92;100.00;99190.88;5053221;28;45531;-80
2023/10/19 01:00:30;;;;;;;;;2.33;1.00;;;;;16.44;100.00;99277.44;5056780;28;45393;-79
2023/10/19 01:03:10;;;;;;;;;3.00;1.00;;;;;16.41;100.00;99277.75;5044354;28;45784;-79
2023/10/19 01:06:05;;;;;;;;;4.67;0.00;;;;;15.89;100.00;99174.34;5050008;28;46613;-80
2023/10/19 01:08:45;;;;;;;;;2.00;1.00;;;;;16.25;100.00;99240.19;5045210;28;45614;-80
2023/10/19 01:11:28;;;;;;;;;3.00;1.00;;;;;16.60;100.00;99290.19;5054307;28;45521;-80
2023/10/19 01:14:41;;;;;;;;;3.00;1.67;;;;;16.08;100.00;99204.44;5051083;28;45464;-81
2023/10/19 01:17:07;;;;;;;;;3.00;1.00;;;;;15.96;100.00;99181.63;5056817;28;46413;-81
2023/10/19 01:19:39;;;;;;;;;1.67;1.00;;;;;16.02;100.00;99167.69;5043766;28;45322;-80
2023/10/19 01:22:16;;;;;;;;;4.00;1.33;;;;;16.10;100.00;99170.44;5051280;28;45569;-80
2023/10/19 01:24:56;;;;;;;;;;;;;;;;;;;;;
2023/10/19 01:27:28;;;;;;;;;4.00;2.00;;;;;15.95;100.00;99139.06;5048111;28;72996;-80
2023/10/19 01:30:17;;;;;;;;;7.67;2.00;;;;;16.12;100.00;99163.16;5044374;28;45752;-79
2023/10/19 01:32:46;;;;;;;;;2.00;2.00;;;;;16.33;100.00;99202.91;5047062;28;45723;-79
2023/10/19 01:35:23;;;;;;;;;2.00;2.00;;;;;16.59;100.00;99241.31;5065831;27;45550;-80
2023/10/19 01:37:50;;;;;;;;;1.00;1.00;;;;;16.39;100.00;99193.50;5076726;28;46374;-79
2023/10/19 01:40:21;;;;;;;;;3.00;2.00;;;;;16.19;100.00;99162.56;5055652;28;45816;-79
2023/10/19 01:42:52;;;;;;;;;1.33;1.00;;;;;16.04;100.00;99147.03;5073112;28;45487;-79
2023/10/19 01:45:21;;;;;;;;;1.00;1.00;;;;;16.15;100.00;99146.84;5063195;28;45519;-79
2023/10/19 01:47:52;;;;;;;;;3.00;2.00;;;;;16.30;100.00;99173.03;5059005;28;45606;-79
2023/10/19 01:50:23;;;;;;;;;4.00;2.00;;;;;16.45;100.00;99193.75;5056756;28;45488;-80
2023/10/19 01:53:07;;;;;;;;;3.67;1.00;;;;;15.95;100.00;99113.25;5059652;28;47208;-79
2023/10/19 01:55:40;;;;;;;;;2.33;2.00;;;;;16.14;100.00;99131.00;5049699;28;45595;-80
2023/10/19 01:58:14;;;;;;;;;3.33;2.33;;;;;16.69;100.00;99213.75;5062513;28;46740;-79
2023/10/19 02:00:49;;;;;;;;;2.00;2.00;;;;;16.57;100.00;99192.59;5054032;28;45371;-79
2023/10/19 02:03:50;;;;;;;;;2.00;2.00;;;;;16.43;100.00;99166.34;5078647;28;45483;-79
2023/10/19 02:06:22;;;;;;;;;0.00;0.00;;;;;16.18;100.00;99129.72;5042747;28;46049;-79
2023/10/19 02:09:00;;;;;;;;;3.67;2.00;;;;;16.08;100.00;99102.25;5060208;28;47786;-79
2023/10/19 02:11:33;;;;;;;;;3.33;2.33;;;;;16.16;100.00;99113.84;5053633;28;45478;-79
2023/10/19 02:14:14;;;;;;;;;2.00;2.00;;;;;16.28;100.00;99133.16;5060000;28;45485;-79
2023/10/19 02:16:53;;;;;;;;;1.00;1.00;;;;;16.69;100.00;99181.72;5058062;28;45632;-79
2023/10/19 02:19:26;;;;;;;;;3.33;2.00;;;;;16.71;100.00;99169.03;5063150;28;45629;-79
2023/10/19 02:22:17;;;;;;;;;4.33;2.00;;;;;16.11;100.00;99086.78;5052742;28;45408;-79
2023/10/19 02:24:43;;;;;;;;;7.00;2.67;;;;;16.20;100.00;99087.72;5060539;28;45513;-79
2023/10/19 02:27:09;;;;;;;;;4.00;1.33;;;;;16.19;100.00;99078.06;5060808;28;45284;-79
2023/10/19 02:29:42;;;;;;;;;2.67;2.67;;;;;16.60;100.00;99164.75;5060477;28;47388;-79
2023/10/19 02:32:19;;;;;;;;;2.33;2.33;;;;;16.09;100.00;99067.44;5057012;28;45508;-79
2023/10/19 02:34:50;;;;;;;;;3.33;2.00;;;;;16.42;100.00;99130.00;5050496;28;45391;-79
2023/10/19 02:37:18;;;;;;;;;6.33;2.00;;;;;16.06;100.00;99081.06;5054995;27;45462;-79
2023/10/19 02:39:44;;;;;;;;;3.33;2.00;;;;;16.66;100.00;99182.81;5052940;28;47867;-79
2023/10/19 02:42:10;;;;;;;;;5.67;1.33;;;;;16.51;100.00;99145.09;5045536;28;45556;-79
2023/10/19 02:44:37;;;;;;;;;4.00;1.33;;;;;16.28;100.00;99122.50;5073175;28;45290;-79
2023/10/19 02:47:08;;;;;;;;;2.67;1.00;;;;;16.38;100.00;99133.09;5065099;28;45284;-79
2023/10/19 02:49:39;;;;;;;;;2.67;0.67;;;;;16.05;100.00;99079.38;5048058;28;48440;-78
2023/10/19 02:52:21;;;;;;;;;4.67;1.67;;;;;16.03;100.00;99051.19;5049974;28;45541;-79
2023/10/19 02:54:47;;;;;;;;;2.00;2.00;;;;;16.37;100.00;99108.25;5067154;28;45265;-79
2023/10/19 02:57:14;;;;;;;;;4.33;2.33;;;;;16.51;100.00;99115.75;5067837;28;45350;-79
2023/10/19 02:59:41;;;;;;;;;3.33;2.33;;;;;16.42;100.00;99107.81;5048803;28;46348;-80
2023/10/19 03:04:46;;;;;;;;;5.67;2.67;;;;;16.46;100.00;99119.84;5078576;28;45336;-79
2023/10/19 03:07:14;;;;;;;;;2.00;2.00;;;;;16.26;100.00;99083.63;5052719;28;45645;-79
2023/10/19 03:09:49;;;;;;;;;2.00;2.00;;;;;16.55;100.00;99137.69;5054992;28;45722;-79
2023/10/19 03:12:16;;;;;;;;;6.00;3.00;;;;;16.48;100.00;99116.06;5061673;28;45449;-79
2023/10/19 03:14:49;;;;;;;;;4.00;1.33;;;;;16.32;100.00;99093.69;5057866;28;45541;-80
2023/10/19 03:17:30;;;;;;;;;5.00;2.33;;;;;16.13;100.00;99055.47;5041019;28;45425;-79
2023/10/19 03:20:05;;;;;;;;;2.67;1.00;;;;;16.43;100.00;99091.63;5055603;28;45457;-79
2023/10/19 03:22:32;;;;;;;;;4.00;1.00;;;;;16.02;100.00;99037.03;5056978;28;45330;-79
2023/10/19 03:27:52;;;;;;;;;2.33;2.00;;;;;16.34;100.00;99081.03;5075398;28;45351;-80
2023/10/19 03:30:20;;;;;;;;;3.00;1.00;;;;;16.16;100.00;99047.16;5041486;28;46621;-79
2023/10/19 03:32:51;;;;;;;;;3.33;2.00;;;;;16.15;100.00;99056.16;5045090;28;45721;-80
2023/10/19 03:35:21;;;;;;;;;7.00;3.00;;;;;15.95;100.00;99016.44;5040959;28;45526;-79
2023/10/19 03:37:53;;;;;;;;;2.33;2.00;;;;;16.00;100.00;99016.84;5060599;28;45671;-79
2023/10/19 03:40:29;;;;;;;;;3.67;1.00;;;;;16.30;100.00;99087.66;5057592;28;45658;-79
2023/10/19 03:42:57;;;;;;;;;2.67;2.00;;;;;16.54;100.00;99106.59;5063626;28;45438;-79
2023/10/19 03:45:32;;;;;;;;;4.33;3.00;;;;;16.58;100.00;99105.34;5058687;28;45379;-79
2023/10/19 03:48:06;;;;;;;;;3.67;1.00;;;;;16.11;100.00;99027.28;5052624;28;45539;-79
2023/10/19 03:50:39;;;;;;;;;6.00;1.00;;;;;16.52;100.00;99111.25;5050178;28;47078;-79
2023/10/19 03:53:13;;;;;;;;;2.00;2.00;;;;;16.25;100.00;99063.25;5050981;28;45376;-80
2023/10/19 03:55:47;;;;;;;;;2.33;1.00;;;;;16.06;100.00;99030.41;5047375;28;45482;-79
2023/10/19 03:58:18;;;;;;;;;5.00;2.33;;;;;16.23;100.00;99060.72;5046933;28;45418;-79
2023/10/19 04:00:52;;;;;;;;;4.00;3.00;;;;;16.20;100.00;99037.03;5057320;28;47693;-79
2023/10/19 04:03:30;;;;;;;;;3.67;2.00;;;;;16.03;100.00;99021.88;5060445;28;45722;-79
2023/10/19 04:06:06;;;;;;;;;0.67;0.67;;;;;15.88;100.00;98986.84;5057461;28;45412;-79
2023/10/19 04:08:37;;;;;;;;;1.00;1.00;;;;;15.94;100.00;98994.25;5048619;28;45611;-79
2023/10/19 04:11:18;;;;;;;;;6.00;2.00;;;;;16.20;100.00;99015.69;5070671;28;46369;-79
2023/10/19 04:13:45;;;;;;;;;6.67;2.67;;;;;16.31;100.00;99042.16;5061529;28;45471;-79
2023/10/19 04:16:20;;;;;;;;;5.00;1.33;;;;;16.13;100.00;99010.13;5061539;28;45506;-78
2023/10/19 04:18:51;;;;;;;;;1.67;1.00;;;;;15.98;100.00;98990.31;5046622;28;45607;-79
2023/10/19 04:21:19;;;;;;;;;2.00;1.00;;;;;16.04;100.00;98983.53;5051825;28;47290;-79
2023/10/19 04:23:46;;;;;;;;;3.33;2.00;;;;;16.14;100.00;99018.97;5051474;28;45470;-78
2023/10/19 04:26:12;;;;;;;;;3.00;1.00;;;;;16.17;100.00;99008.00;5068325;28;45376;-78
2023/10/19 04:28:49;;;;;;;;;4.67;2.00;;;;;16.24;100.00;99016.22;5048898;28;45391;-78
2023/10/19 04:31:23;;;;;;;;;2.33;1.00;;;;;15.93;100.00;98957.94;5072470;28;47518;-80
2023/10/19 04:33:54;;;;;;;;;1.67;1.67;;;;;15.89;100.00;98948.56;5066730;28;45487;-80
2023/10/19 04:36:21;;;;;;;;;2.33;1.33;;;;;16.23;100.00;99010.03;5063137;27;45476;-78
2023/10/19 04:38:48;;;;;;;;;5.33;2.00;;;;;16.11;100.00;98984.59;5063544;28;45625;-78
2023/10/19 04:41:15;;;;;;;;;2.33;2.00;;;;;15.96;100.00;98962.13;5084067;28;46178;-78
2023/10/19 04:44:02;;;;;;;;;4.00;2.00;;;;;16.32;100.00;99017.16;5066189;28;45258;-79
2023/10/19 04:46:39;;;;;;;;;;;;;;;;;;;;;
2023/10/19 04:49:05;;;;;;;;;0.00;0.00;;;;;15.78;100.00;98919.44;5070776;27;71199;-78
2023/10/19 04:51:44;;;;;;;;;3.67;2.00;;;;;15.98;100.00;98979.63;5063654;28;46640;-79
2023/10/19 04:54:19;;;;;;;;;2.33;1.33;;;;;15.93;100.00;98949.94;5056818;28;45531;-79
2023/10/19 04:56:55;;;;;;;;;5.33;2.00;;;;;16.03;100.00;98961.34;5061352;27;45502;-79
2023/10/19 04:59:33;;;;;;;;;5.00;3.00;;;;;15.81;100.00;98921.78;5072310;28;45601;-79
2023/10/19 05:02:01;;;;;;;;;2.00;2.00;;;;;16.14;100.00;98953.13;5055379;28;45635;-78
2023/10/19 05:04:33;;;;;;;;;3.67;1.67;;;;;16.35;100.00;98987.50;5070940;28;45437;-78
2023/10/19 05:07:01;;;;;;;;;2.00;1.00;;;;;16.06;100.00;98960.22;5062862;28;45466;-79
2023/10/19 05:09:26;;;;;;;;;5.67;2.00;;;;;15.81;100.00;98921.78;5057261;28;46801;-77
2023/10/19 05:11:52;;;;;;;;;2.00;1.00;;;;;16.12;100.00;98944.44;5072841;28;45343;-78
2023/10/19 05:14:41;;;;;;;;;4.00;3.00;;;;;16.29;100.00;98977.44;5071446;28;45460;-77
2023/10/19 05:17:10;;;;;;;;;2.33;2.00;;;;;16.11;100.00;98940.09;5066057;28;45474;-78
2023/10/19 05:19:37;;;;;;;;;3.00;2.00;;;;;16.28;100.00;98993.59;5064808;28;45518;-77
2023/10/19 05:22:05;;;;;;;;;3.00;2.00;;;;;15.72;100.00;98901.38;5085471;28;45424;-77
2023/10/19 05:24:31;;;;;;;;;4.67;2.00;;;;;16.08;100.00;98964.41;5067565;28;45304;-77
2023/10/19 05:26:56;;;;;;;;;2.00;2.00;;;;;15.76;100.00;98904.59;5050619;28;45381;-78
2023/10/19 05:29:31;;;;;;;;;4.00;2.33;;;;;15.89;100.00;98905.06;5081451;28;45798;-79
2023/10/19 05:31:58;;;;;;;;;4.00;1.67;;;;;15.88;100.00;98898.03;5069171;28;46579;-78
2023/10/19 05:34:27;;;;;;;;;2.67;1.00;;;;;15.88;100.00;98893.53;5063504;28;45397;-78
2023/10/19 05:36:54;;;;;;;;;1.67;0.67;;;;;15.79;100.00;98854.47;5050522;28;45537;-79
2023/10/19 05:39:20;;;;;;;;;2.67;2.33;;;;;16.00;100.00;98876.31;5068211;28;45536;-78
2023/10/19 05:41:45;;;;;;;;;3.67;1.00;;;;;16.19;100.00;98909.16;5059751;28;46829;-78
2023/10/19 05:44:11;;;;;;;;;2.33;1.00;;;;;16.11;100.00;98894.75;5065152;28;45482;-79
2023/10/19 05:46:37;;;;;;;;;3.00;3.00;;;;;16.09;100.00;98886.09;5071123;28;45335;-79
2023/10/19 05:49:06;;;;;;;;;2.00;1.00;;;;;15.70;100.00;98806.59;5051889;28;45474;-78
2023/10/19 05:51:31;;;;;;;;;1.00;1.00;;;;;16.16;100.00;98883.66;5072183;28;46618;-78
2023/10/19 05:54:01;;;;;;;;;2.00;2.00;;;;;16.10;100.00;98886.91;5062886;28;45447;-78
2023/10/19 05:56:34;;;;;;;;;3.33;1.00;;;;;16.17;100.00;98907.47;5043376;28;45397;-78
2023/10/19 05:59:01;;;;;;;;;5.33;2.67;;;;;16.39;100.00;98926.69;5049780;28;45234;-78
2023/10/19 06:01:32;;;;;;;;;3.33;2.33;;;;;16.49;100.00;98972.78;5059017;28;45925;-79
2023/10/19 06:03:58;;;;;;;;;3.33;1.00;;;;;16.16;100.00;98913.78;5059017;28;45507;-79
2023/10/19 06:06:23;;;;;;;;;2.00;2.00;;;;;15.92;100.00;98873.59;5076495;28;45462;-78
2023/10/19 06:08:53;;;;;;;;;1.67;1.67;;;;;16.25;100.00;98913.88;5066158;28;45554;-80
2023/10/19 06:11:20;;;;;;;;;3.00;1.00;;;;;16.41;100.00;98951.34;5075415;28;45925;-79
2023/10/19 06:13:46;;;;;;;;;1.00;1.00;;;;;16.15;100.00;98889.97;5066438;28;45416;-79
2023/10/19 06:16:11;;;;;;;;;3.00;2.00;;;;;16.32;100.00;98913.13;5071792;28;45407;-79
2023/10/19 06:18:36;;;;;;;;;2.67;2.33;;;;;16.06;100.00;98874.88;5051490;28;45481;-78
2023/10/19 06:21:03;;;;;;;;;1.33;1.33;;;;;16.36;100.00;98918.97;5070036;28;45514;-77
2023/10/19 06:23:28;;;;;;;;;2.00;2.00;;;;;16.42;100.00;98934.38;5061660;28;45377;-79
2023/10/19 06:25:53;;;;;;;;;3.67;2.67;;;;;16.29;100.00;98908.09;5060297;28;45689;-78
2023/10/19 06:28:19;;;;;;;;;2.33;2.00;;;;;16.36;100.00;98914.47;5072494;28;46412;-79
2023/10/19 06:30:45;;;;;;;;;2.00;2.00;;;;;16.27;100.00;98914.53;5049332;28;48038;-79
2023/10/19 06:33:10;;;;;;;;;1.00;1.00;;;;;15.96;100.00;98864.31;5069225;28;45633;-79
2023/10/19 06:35:37;;;;;;;;;7.67;4.00;;;;;16.36;100.00;98927.00;5068183;28;45531;-79
2023/10/19 06:38:08;;;;;;;;;2.00;2.00;;;;;16.36;100.00;98919.78;5047903;28;45693;-79
2023/10/19 06:40:37;;;;;;;;;3.33;2.00;;;;;16.38;100.00;98922.31;5060346;28;47929;-79
2023/10/19 06:43:05;;;;;;;;;2.00;2.00;;;;;16.39;100.00;98935.50;5053277;28;45484;-79
2023/10/19 06:45:30;;;;;;;;;3.33;2.00;;;;;16.41;100.00;98933.53;5056702;28;45580;-78
2023/10/19 06:47:57;;;;;;;;;2.00;2.00;;;;;16.40;100.00;98931.84;5068069;28;45428;-79
2023/10/19 06:50:23;;;;;;;;;4.67;2.00;;;;;16.34;100.00;98920.94;5055066;28;45618;-78
2023/10/19 06:52:49;;;;;;;;;2.67;2.67;;;;;16.41;100.00;98927.34;5046148;28;45504;-79
2023/10/19 06:55:19;;;;;;;;;2.33;1.00;;;;;16.23;100.00;98895.34;5061541;28;45625;-79
2023/10/19 06:57:45;;;;;;;;;2.00;2.00;;;;;16.29;100.00;98897.41;5050354;28;45576;-79
2023/10/19 07:00:19;;;;;;;;;5.67;2.00;;;;;16.41;100.00;98919.34;5063182;28;45489;-79
2023/10/19 07:02:46;;;;;;;;;5.00;3.67;;;;;16.24;100.00;98898.84;5064994;28;46357;-79
2023/10/19 07:05:17;;;;;;;;;3.33;2.00;;;;;16.35;100.00;98902.13;5067925;28;45355;-79
2023/10/19 07:07:44;;;;;;;;;4.67;2.67;;;;;16.43;100.00;98918.19;5079436;28;45552;-80
2023/10/19 07:10:14;;;;;;;;;2.67;2.33;;;;;16.50;100.00;98915.75;5073058;28;45505;-79
2023/10/19 07:12:41;;;;;;;;;4.67;2.33;;;;;16.51;100.00;98910.25;5061339;28;45436;-80
2023/10/19 07:15:08;;;;;;;;;3.67;2.33;;;;;16.54;100.00;98906.44;5073945;27;45542;-79
2023/10/19 07:17:35;;;;;;;;;2.33;1.33;;;;;16.55;100.00;98902.81;5061033;28;45761;-79
2023/10/19 07:20:03;;;;;;;;;1.00;1.00;;;;;16.55;100.00;98892.13;5068718;28;45634;-77
2023/10/19 07:22:28;;;;;;;;;2.00;2.00;;;;;16.45;100.00;98888.69;5063810;27;47050;-77
2023/10/19 07:24:54;;;;;;;;;2.67;2.00;;;;;16.53;100.00;98899.41;5071251;28;45352;-77
2023/10/19 07:27:20;;;;;;;;;3.00;1.67;;;;;16.54;100.00;98891.25;5059811;28;45304;-78
2023/10/19 07:29:47;;;;;;;;;2.00;2.00;;;;;16.49;100.00;98879.38;5071252;28;45450;-78
2023/10/19 07:32:16;;;;;;;;;2.33;2.00;;;;;16.47;100.00;98870.69;5052379;28;45550;-77
2023/10/19 07:34:44;;;;;;;;;3.67;2.00;;;;;16.43;100.00;98861.31;5061829;28;45353;-77
2023/10/19 07:37:14;;;;;;;;;2.33;2.33;;;;;16.53;100.00;98870.91;5075544;28;45443;-77
2023/10/19 07:39:44;;;;;;;;;2.33;1.00;;;;;16.47;100.00;98839.50;5064595;28;45465;-78
2023/10/19 07:42:11;;;;;;;;;2.00;2.00;;;;;16.51;100.00;98842.69;5054442;28;45372;-78
2023/10/19 07:44:36;;;;;;;;;3.00;3.00;;;;;16.66;100.00;98852.66;5055865;28;45390;-77
2023/10/19 07:47:02;;;;;;;;;2.00;2.00;;;;;16.71;100.00;98854.03;5072956;28;45401;-78
2023/10/19 07:49:27;;;;;;;;;3.00;3.00;;;;;16.71;100.00;98851.34;5060023;28;46278;-78
2023/10/19 07:51:52;;;;;;;;;2.67;2.00;;;;;16.83;100.00;98872.28;5072345;28;45382;-78
2023/10/19 07:54:18;;;;;;;;;3.00;3.00;;;;;16.85;100.00;98864.13;5065687;28;45421;-77
2023/10/19 07:56:46;;;;;;;;;1.00;1.00;;;;;16.95;100.00;98872.84;5079295;28;45505;-78
2023/10/19 07:59:12;;;;;;;;;2.33;2.33;;;;;16.91;100.00;98861.66;5079493;28;46241;-78
2023/10/19 08:01:37;;;;;;;;;2.00;2.00;;;;;16.98;100.00;98857.31;5057952;28;45813;-78
2023/10/19 08:04:03;;;;;;;;;2.33;1.00;;;;;17.08;100.00;98876.72;5071799;28;45455;-77
2023/10/19 08:06:28;;;;;;;;;1.67;1.33;;;;;17.12;100.00;98879.91;5079329;28;45427;-77
2023/10/19 08:08:55;;;;;;;;;2.00;2.00;;;;;17.05;100.00;98863.69;5079502;28;45378;-77
2023/10/19 08:11:21;;;;;;;;;3.67;1.00;;;;;17.13;100.00;98881.59;5046735;28;45628;-78
2023/10/19 08:13:47;;;;;;;;;1.00;1.00;;;;;17.09;100.00;98880.25;5071226;28;45380;-78
2023/10/19 08:16:12;;;;;;;;;1.00;1.00;;;;;17.08;100.00;98878.59;5072281;27;45234;-77
2023/10/19 08:18:39;;;;;;;;;2.00;2.00;;;;;16.94;100.00;98855.16;5048370;28;47046;-77
2023/10/19 08:21:04;;;;;;;;;4.33;2.00;;;;;17.06;100.00;98870.72;5071782;28;45561;-78
2023/10/19 08:23:31;;;;;;;;;2.33;1.00;;;;;17.19;100.00;98870.28;5042622;28;45322;-78
2023/10/19 08:25:57;;;;;;;;;1.33;1.33;;;;;17.19;100.00;98863.09;5053744;28;45568;-77
2023/10/19 08:28:22;;;;;;;;;2.00;1.00;;;;;17.26;100.00;98862.44;5060952;28;47783;-77
2023/10/19 08:30:57;;;;;;;;;3.00;1.00;;;;;17.25;100.00;98842.91;5060930;28;45641;-78
2023/10/19 08:33:25;;;;;;;;;3.33;1.00;;;;;17.37;100.00;98859.50;5072298;28;45380;-77
2023/10/19 08:35:53;;;;;;;;;9.00;2.00;;;;;17.43;100.00;98861.50;5068034;27;45367;-78
2023/10/19 08:38:19;;;;;;;;;4.00;3.00;;;;;17.51;100.00;98849.00;5081766;28;45360;-77
2023/10/19 08:40:45;;;;;;;;;2.00;0.67;;;;;17.54;100.00;98837.13;5061574;28;45234;-78
2023/10/19 08:43:13;;;;;;;;;3.00;1.00;;;;;17.63;100.00;98836.19;5079269;28;45518;-77
2023/10/19 08:45:39;;;;;;;;;1.00;1.00;;;;;17.73;100.00;98828.00;5049870;28;45684;-78
2023/10/19 08:48:04;;;;;;;;;1.00;1.00;;;;;17.82;100.00;98837.72;5079449;28;46337;-78
2023/10/19 08:50:33;;;;;;;;;1.00;1.00;;;;;17.91;100.00;98845.56;5068579;28;45309;-78
2023/10/19 08:53:14;;;;;;;;;1.00;1.00;;;;;17.99;100.00;98848.28;5072720;28;45226;-78
2023/10/19 08:55:39;;;;;;;;;0.67;0.67;;;;;17.98;100.00;98849.25;5071894;28;45372;-77
2023/10/19 08:58:05;;;;;;;;;1.00;1.00;;;;;18.08;100.00;98852.59;5065735;28;45389;-79
2023/10/19 09:00:46;;;;;;;;;2.00;1.33;;;;;18.10;100.00;98847.06;5078844;28;45279;-77
2023/10/19 09:03:13;;;;;;;;;1.00;0.33;;;;;18.17;100.00;98851.59;5066569;28;45318;-77
2023/10/19 09:05:40;;;;;;;;;1.33;1.33;;;;;18.01;100.00;98824.84;5055888;28;45408;-77
2023/10/19 09:08:06;;;;;;;;;2.33;2.33;;;;;18.26;100.00;98846.25;5060587;28;45712;-77
2023/10/19 09:10:31;;;;;;;;;0.67;0.67;;;;;18.26;100.00;98841.72;5078234;28;45331;-77
2023/10/19 09:13:12;;;;;;;;;1.33;0.33;;;;;18.29;100.00;98838.69;5078881;28;45210;-78
2023/10/19 09:15:38;;;;;;;;;1.00;1.00;;;;;18.28;100.00;98830.84;5066183;28;45465;-78
2023/10/19 09:18:16;;;;;;;;;2.67;0.33;;;;;18.33;100.00;98821.31;5071790;28;45420;-77
2023/10/19 09:20:53;;;;;;;;;1.67;1.67;;;;;18.29;100.00;98806.59;5068615;28;45292;-78
2023/10/19 09:23:21;;;;;;;;;1.67;0.33;;;;;18.34;100.00;98817.63;5077076;28;45360;-78
2023/10/19 09:25:47;;;;;;;;;2.67;1.33;;;;;18.34;100.00;98806.09;5061416;28;45360;-77
2023/10/19 09:28:13;;;;;;;;;1.67;1.67;;;;;18.53;100.00;98816.44;5075367;28;45397;-77
2023/10/19 09:30:40;;;;;;;;;3.00;0.67;;;;;18.48;100.00;98792.84;5061864;28;45467;-78
2023/10/19 09:33:06;;;;;;;;;2.33;1.00;;;;;18.78;100.00;98812.72;5073235;28;45310;-78
2023/10/19 09:35:34;;;;;;;;;1.67;0.67;;;;;18.89;100.00;98812.31;5063072;28;45535;-78
2023/10/19 09:38:00;;;;;;;;;1.67;1.00;;;;;18.96;100.00;98799.91;5062179;28;46713;-77
2023/10/19 09:40:27;;;;;;;;;1.33;1.33;;;;;19.00;100.00;98798.56;5074622;28;45431;-77
2023/10/19 09:42:57;;;;;;;;;1.33;0.33;;;;;18.81;100.00;98753.44;5081877;28;45502;-77
2023/10/19 09:45:27;;;;;;;;;2.33;0.67;;;;;18.95;100.00;98775.94;5063468;28;45289;-78
2023/10/19 09:47:54;;;;;;;;;1.67;0.67;;;;;19.03;100.00;98781.28;5066964;28;45540;-78
2023/10/19 09:50:20;;;;;;;;;1.33;1.33;;;;;18.95;100.00;98768.75;5069503;28;45431;-77
2023/10/19 09:52:46;;;;;;;;;2.00;0.33;;;;;19.02;100.00;98780.44;5058932;28;45326;-76
2023/10/19 09:55:19;;;;;;;;;2.00;0.67;;;;;19.03;100.00;98775.94;5072422;28;45416;-78
2023/10/19 09:57:56;;;;;;;;;1.33;1.33;;;;;18.96;100.00;98759.72;5067647;28;45405;-77
2023/10/19 10:00:24;;;;;;;;;0.00;0.00;;;;;19.14;100.00;98765.63;5071307;28;45452;-77
2023/10/19 10:02:51;;;;;;;;;2.00;0.67;;;;;19.21;100.00;98776.47;5077346;28;45296;-77
2023/10/19 10:05:38;;;;;;;;;3.00;0.67;;;;;19.22;100.00;98784.38;5073341;28;45553;-78
2023/10/19 10:08:18;;;;;;;;;1.00;1.00;;;;;19.28;100.00;98796.22;5067796;28;45357;-77
2023/10/19 10:10:44;;;;;;;;;1.33;1.33;;;;;19.29;100.00;98791.69;5081456;28;45576;-77
2023/10/19 10:13:26;;;;;;;;;2.00;2.00;;;;;19.36;100.00;98785.47;5065869;28;45475;-78
2023/10/19 10:15:54;;;;;;;;;1.00;1.00;;;;;19.44;100.00;98797.97;5068401;28;45436;-77
2023/10/19 10:18:19;;;;;;;;;2.00;1.00;;;;;19.48;100.00;98791.25;5053039;28;45386;-77
2023/10/19 10:20:46;;;;;;;;;1.67;1.67;;;;;19.51;100.00;98778.34;5070525;28;45376;-78
2023/10/19 10:23:32;;;;;;;;;1.67;1.67;;;;;19.45;100.00;98771.00;5070366;28;45375;-78
2023/10/19 10:25:58;;;;;;;;;0.67;0.33;;;;;19.53;100.00;98759.41;5061101;28;45406;-77
2023/10/19 10:28:24;;;;;;;;;0.67;0.67;;;;;19.47;100.00;98744.03;5062501;28;46951;-77
2023/10/19 10:31:21;;;;;;;;;0.67;0.67;;;;;19.67;100.00;98769.34;5069128;28;45290;-78
2023/10/19 10:33:57;;;;;;;;;0.00;0.00;;;;;19.70;100.00;98767.13;5079973;28;45293;-78
2023/10/19 10:36:22;;;;;;;;;0.00;0.00;;;;;19.66;100.00;98746.22;5066310;28;45223;-77
2023/10/19 10:38:50;;;;;;;;;1.00;1.00;;;;;19.77;100.00;98756.50;5058800;28;45617;-78
2023/10/19 10:41:27;;;;;;;;;1.00;1.00;;;;;19.76;100.00;98752.19;5080577;28;45415;-78
2023/10/19 10:43:55;;;;;;;;;1.00;1.00;;;;;19.84;100.00;98751.25;5067889;28;45484;-78
2023/10/19 10:46:22;;;;;;;;;1.67;0.67;;;;;19.93;100.00;98742.13;5073012;28;45321;-77
2023/10/19 10:48:48;;;;;;;;;1.33;0.00;;;;;19.95;100.00;98742.78;5077168;28;45424;-78
2023/10/19 10:51:18;;;;;;;;;2.33;1.00;;;;;19.84;100.00;98702.97;5075368;28;45367;-78
2023/10/19 10:53:52;;;;;;;;;0.33;0.00;;;;;20.04;100.00;98731.78;5051414;28;45411;-78
2023/10/19 10:56:19;;;;;;;;;2.00;1.00;;;;;20.07;100.00;98717.16;5062544;28;45356;-78
2023/10/19 10:58:45;;;;;;;;;1.00;1.00;;;;;20.09;100.00;98712.47;5073069;28;46086;-79
2023/10/19 11:01:10;;;;;;;;;0.00;0.00;;;;;20.13;100.00;98719.94;5067015;28;45310;-78
2023/10/19 11:03:37;;;;;;;;;1.00;1.00;;;;;20.15;100.00;98711.72;5071831;28;45318;-78
2023/10/19 11:06:07;;;;;;;;;0.67;0.67;;;;;20.16;100.00;98695.44;5078949;28;45307;-78
2023/10/19 11:08:34;;;;;;;;;0.33;0.33;;;;;20.18;100.00;98700.63;5059553;28;47601;-78
2023/10/19 11:11:10;;;;;;;;;1.67;0.33;;;;;20.24;100.00;98708.78;5073316;28;45398;-78
2023/10/19 11:13:38;;;;;;;;;0.33;0.33;;;;;20.27;100.00;98711.13;5069156;28;45297;-78
2023/10/19 11:16:05;;;;;;;;;0.00;0.00;;;;;20.18;98.40;98682.66;5066517;28;45352;-78
2023/10/19 11:18:45;;;;;;;;;0.67;0.67;;;;;20.35;99.76;98702.16;5060460;28;45501;-77
2023/10/19 11:21:12;;;;;;;;;1.00;1.00;;;;;20.52;97.82;98708.13;5079954;28;45214;-77
2023/10/19 11:23:39;;;;;;;;;1.00;1.00;;;;;20.60;99.90;98708.03;5064547;28;45344;-77
2023/10/19 11:26:05;;;;;;;;;1.00;1.00;;;;;20.55;96.05;98692.47;5050032;28;45755;-77
2023/10/19 11:28:33;;;;;;;;;0.00;0.00;;;;;20.45;97.90;98669.63;5064841;28;45378;-78
2023/10/19 11:31:14;;;;;;;;;1.00;1.00;;;;;20.59;98.10;98692.94;5061598;28;45416;-78
2023/10/19 11:33:42;;;;;;;;;0.00;0.00;;;;;20.57;95.63;98682.41;5074382;28;46617;-78
2023/10/19 11:36:07;;;;;;;;;1.33;1.00;;;;;20.68;96.31;98675.72;5069370;28;45635;-78
2023/10/19 11:38:33;;;;;;;;;1.00;0.00;;;;;20.73;96.07;98668.75;5079578;28;45382;-77
2023/10/19 11:40:58;;;;;;;;;1.00;1.00;;;;;20.76;88.00;98673.75;5079436;28;45474;-78
2023/10/19 11:43:23;;;;;;;;;0.00;0.00;;;;;20.79;93.29;98673.38;5073622;28;45338;-77
2023/10/19 11:45:49;;;;;;;;;1.00;0.00;;;;;20.84;90.20;98663.91;5071734;28;45412;-78
2023/10/19 11:48:15;;;;;;;;;0.00;0.00;;;;;21.00;92.36;98669.88;5066156;28;46329;-78
2023/10/19 11:50:41;;;;;;;;;0.00;0.00;;;;;21.03;89.99;98660.59;5067852;28;45297;-78
2023/10/19 11:53:06;;;;;;;;;2.67;1.33;;;;;21.14;91.51;98655.56;5075529;28;45379;-77
2023/10/19 11:55:31;;;;;;;;;0.33;0.33;;;;;21.11;86.30;98652.44;5055423;28;45484;-77
2023/10/19 11:57:57;;;;;;;;;3.00;0.00;;;;;21.20;83.59;98656.69;5072336;28;45455;-77